Hauptseite
METAR-TAF:

METAR-TAF

Flughäfen :

Eureka, Nunavut, Kanada

Breite: 79-59N, Länge: 085-56W, Höhe: 10 m

Beobachtung

Neuester Wetterbericht von vor 17 Minuten, um 19:00 UTC
Wind 6 kt aus Süd
Temperatur 6°C
Luftfeuchtigkeit 75%
Luftdruck 1001 hPa
Sichtweite: 24.1 km
Leicht bewölkt in der Höhe von 2000 ft
Leicht bewölkt in der Höhe von 5200 ft
Aufgelockert bewölkt in der Höhe von 6000 ft
Geschlossene Wolkendecke in der Höhe von 10000 ft
Geschlossene Wolkendecke in der Höhe von 21000 ft

METAR: CWEU 191900Z 17006KT 15SM FEW020 FEW052 SCT060 OVC100 OVC210 06/02 A2956 RMK SF1SC2SC2AC4CS1 SF TR CS TR SLP014

Zeit: 14:17 (19:17 UTC)


TAF: fehlend

Wetterbeobachtungen und Prognosen von mehr als 4000 Flughäfen (METAR und TAF Bericht).

Die verfügbaren Stationen werden durch gelbe und rote Markierungen auf der Karte dargestellt.

Führen Sie die Maus auf sie, um den Namen der Station zu sehen.

Darauf klicken, um die Beobachtung von Wetterbeobachtungen und Prognosen zu sehen.

Um die Karte zu ändern : klicken Sie auf den grünen Tasten mit einem schwarzen Kreuz Zum Vergrößern, auf den grünen Button mit einem Gedankenstrich zu verkleinern, oder auf die grünen Pfeile für benachbarte Karten.


METAR-TAF: